createdAt,value
2023-01-02T00:00:57.557Z,13.27
2023-01-02T00:03:24.103Z,13.37
2023-01-02T00:05:50.446Z,13.38
2023-01-02T00:08:16.777Z,13.37
2023-01-02T00:10:43.104Z,13.37
2023-01-02T00:13:09.437Z,13.43
2023-01-02T00:15:35.855Z,13.49
2023-01-02T00:18:02.164Z,13.49
2023-01-02T00:20:28.501Z,13.53
2023-01-02T00:22:54.805Z,13.53
2023-01-02T00:25:21.118Z,13.53
2023-01-02T00:27:47.427Z,13.50
2023-01-02T00:30:13.771Z,13.53
2023-01-02T00:32:40.105Z,13.47
2023-01-02T00:35:06.423Z,13.48
2023-01-02T00:37:32.755Z,13.51
2023-01-02T00:39:59.064Z,13.55
2023-01-02T00:42:25.433Z,13.55
2023-01-02T00:44:51.743Z,13.55
2023-01-02T00:47:18.059Z,13.62
2023-01-02T00:49:44.368Z,13.66
2023-01-02T00:52:10.690Z,13.67
2023-01-02T00:54:37.008Z,13.73
2023-01-02T00:57:03.362Z,13.75
2023-01-02T00:59:29.769Z,13.75
2023-01-02T01:01:56.151Z,13.78
2023-01-02T01:04:22.586Z,13.81
2023-01-02T01:06:48.984Z,13.84
2023-01-02T01:09:15.332Z,13.89
2023-01-02T01:11:41.678Z,13.84
2023-01-02T01:14:08.030Z,13.86
2023-01-02T01:16:34.460Z,13.87
2023-01-02T01:19:00.851Z,13.88
2023-01-02T01:21:27.279Z,13.89
2023-01-02T01:23:53.620Z,13.90
2023-01-02T01:26:20.469Z,13.90
2023-01-02T01:28:46.797Z,13.87
2023-01-02T01:31:13.202Z,13.82
2023-01-02T01:33:39.590Z,13.84
2023-01-02T01:36:05.922Z,13.84
2023-01-02T01:38:32.243Z,13.82
2023-01-02T01:40:58.579Z,13.83
2023-01-02T01:43:24.893Z,13.77
2023-01-02T01:45:51.236Z,13.84
2023-01-02T01:48:17.577Z,13.83
2023-01-02T01:50:43.955Z,13.85
2023-01-02T01:53:10.279Z,13.85
2023-01-02T01:55:36.601Z,13.81
2023-01-02T01:58:02.931Z,13.91
2023-01-02T02:00:29.246Z,13.96
2023-01-02T02:02:55.664Z,13.97
2023-01-02T02:05:22.060Z,13.97
2023-01-02T02:07:48.387Z,13.95
2023-01-02T02:10:14.707Z,13.92
2023-01-02T02:12:41.115Z,13.90
2023-01-02T02:15:07.425Z,13.86
2023-01-02T02:17:33.802Z,13.80
2023-01-02T02:20:00.271Z,13.81
2023-01-02T02:22:26.611Z,13.76
2023-01-02T02:24:52.944Z,13.76
2023-01-02T02:27:19.306Z,13.75
2023-01-02T02:29:45.639Z,13.75
2023-01-02T02:32:12.060Z,13.67
2023-01-02T02:34:38.399Z,13.67
2023-01-02T02:37:04.719Z,13.72
2023-01-02T02:39:31.036Z,13.70
2023-01-02T02:41:57.835Z,13.68
2023-01-02T02:44:24.185Z,13.64
2023-01-02T02:46:50.500Z,13.73
2023-01-02T02:49:16.858Z,13.77
2023-01-02T02:51:43.165Z,13.75
2023-01-02T02:54:09.673Z,13.71
2023-01-02T02:56:35.977Z,13.71
2023-01-02T02:59:02.298Z,13.69
2023-01-02T03:01:30.819Z,13.71
2023-01-02T03:03:57.394Z,13.68
2023-01-02T03:06:23.718Z,13.63
2023-01-02T03:08:50.046Z,13.62
2023-01-02T03:11:16.388Z,13.61
2023-01-02T03:13:42.742Z,13.68
2023-01-02T03:16:09.103Z,13.60
2023-01-02T03:18:35.404Z,13.59
2023-01-02T03:21:01.711Z,13.58
2023-01-02T03:23:28.053Z,13.58
2023-01-02T03:25:54.427Z,13.55
2023-01-02T03:28:20.745Z,13.57
2023-01-02T03:30:47.085Z,13.48
2023-01-02T03:33:13.388Z,13.52
2023-01-02T03:35:39.739Z,13.49
2023-01-02T03:38:06.044Z,13.45
2023-01-02T03:40:32.356Z,13.35
2023-01-02T03:42:58.695Z,13.40
2023-01-02T03:45:25.014Z,13.41
2023-01-02T03:47:51.360Z,13.39
2023-01-02T03:50:17.685Z,13.36
2023-01-02T03:52:44.009Z,13.32
2023-01-02T03:55:10.340Z,13.31
2023-01-02T03:57:36.639Z,13.31
2023-01-02T04:00:03.007Z,13.36
2023-01-02T04:02:29.501Z,13.39
2023-01-02T04:04:55.982Z,13.38
2023-01-02T04:07:22.325Z,13.41
2023-01-02T04:09:48.673Z,13.39
2023-01-02T04:12:14.986Z,13.40
2023-01-02T04:14:41.291Z,13.41
2023-01-02T04:17:10.757Z,13.44
2023-01-02T04:19:37.058Z,13.41
2023-01-02T04:22:04.911Z,13.35
2023-01-02T04:24:31.204Z,13.33
2023-01-02T04:26:57.527Z,13.29
2023-01-02T04:29:23.865Z,13.24
2023-01-02T04:31:50.185Z,13.28
2023-01-02T04:34:16.566Z,13.22
2023-01-02T04:36:42.878Z,13.16
2023-01-02T04:39:09.235Z,13.22
2023-01-02T04:41:35.565Z,13.25
2023-01-02T04:44:01.931Z,13.21
2023-01-02T04:46:28.326Z,13.24
2023-01-02T04:48:54.992Z,13.16
2023-01-02T04:51:21.323Z,13.16
2023-01-02T04:53:47.641Z,13.13
2023-01-02T04:56:14.245Z,13.08
2023-01-02T04:58:40.582Z,13.04
2023-01-02T05:01:06.909Z,13.01
2023-01-02T05:03:33.264Z,12.98
2023-01-02T05:05:59.598Z,12.87
2023-01-02T05:08:25.932Z,12.81
2023-01-02T05:10:52.264Z,12.77
2023-01-02T05:13:18.598Z,12.71
2023-01-02T05:15:45.006Z,12.63
2023-01-02T05:18:11.340Z,12.59
2023-01-02T05:20:37.653Z,12.52
2023-01-02T05:23:22.936Z,12.54
2023-01-02T05:25:49.267Z,12.47
2023-01-02T05:28:15.571Z,12.43
2023-01-02T05:30:41.882Z,12.35
2023-01-02T05:33:08.208Z,12.34
2023-01-02T05:35:34.540Z,12.32
2023-01-02T05:38:00.859Z,12.33
2023-01-02T05:40:27.172Z,12.27
2023-01-02T05:42:53.488Z,12.31
2023-01-02T05:45:19.807Z,12.26
2023-01-02T05:47:46.109Z,12.25
2023-01-02T05:50:12.420Z,12.26
2023-01-02T05:52:44.921Z,12.27
2023-01-02T05:55:12.052Z,12.32
2023-01-02T05:57:38.370Z,12.27
2023-01-02T06:00:04.774Z,12.30
2023-01-02T06:02:31.261Z,12.33
2023-01-02T06:04:57.635Z,12.30
2023-01-02T06:07:23.953Z,12.29
2023-01-02T06:09:50.286Z,12.30
2023-01-02T06:12:16.629Z,12.22
2023-01-02T06:14:42.954Z,12.26
2023-01-02T06:17:09.280Z,12.26
2023-01-02T06:19:35.617Z,12.19
2023-01-02T06:22:01.925Z,12.13
2023-01-02T06:24:28.277Z,12.02
2023-01-02T06:26:55.824Z,12.01
2023-01-02T06:29:22.148Z,11.95
2023-01-02T06:31:51.516Z,11.90
2023-01-02T06:34:18.007Z,11.88
2023-01-02T06:36:44.335Z,11.77
2023-01-02T06:39:10.642Z,11.78
2023-01-02T06:41:36.989Z,11.67
2023-01-02T06:44:03.307Z,11.61
2023-01-02T06:46:29.637Z,11.62
2023-01-02T06:48:55.945Z,11.67
2023-01-02T06:51:22.294Z,11.67
2023-01-02T06:53:48.689Z,11.62
2023-01-02T06:56:15.003Z,11.43
2023-01-02T06:58:41.365Z,11.49
2023-01-02T07:01:07.734Z,11.44
2023-01-02T07:03:34.074Z,11.46
2023-01-02T07:06:00.441Z,11.37
2023-01-02T07:08:26.749Z,11.31
2023-01-02T07:10:53.257Z,11.29
2023-01-02T07:13:19.618Z,11.14
2023-01-02T07:15:45.946Z,11.16
2023-01-02T07:18:12.281Z,11.19
2023-01-02T07:20:38.612Z,11.16
2023-01-02T07:23:04.975Z,11.06
2023-01-02T07:25:31.301Z,11.00
2023-01-02T07:27:57.678Z,10.96
2023-01-02T07:30:23.979Z,10.95
2023-01-02T07:32:50.285Z,10.94
2023-01-02T07:35:16.592Z,10.92
2023-01-02T07:37:42.892Z,10.95
2023-01-02T07:40:09.196Z,10.85
2023-01-02T07:42:35.500Z,10.89
2023-01-02T07:45:01.830Z,10.92
2023-01-02T07:47:28.178Z,10.77
2023-01-02T07:49:54.500Z,10.82
2023-01-02T07:52:20.805Z,10.97
2023-01-02T07:54:47.198Z,10.94
2023-01-02T07:57:13.727Z,10.87
2023-01-02T07:59:40.092Z,10.96
2023-01-02T08:02:06.543Z,10.99
2023-01-02T08:04:33.000Z,10.92
2023-01-02T08:06:59.380Z,11.01
2023-01-02T08:09:25.707Z,10.95
2023-01-02T08:11:52.025Z,10.83
2023-01-02T08:14:23.192Z,10.91
2023-01-02T08:16:50.075Z,10.89
2023-01-02T08:19:16.541Z,10.90
2023-01-02T08:21:42.922Z,10.79
2023-01-02T08:24:09.299Z,10.90
2023-01-02T08:26:35.637Z,10.91
2023-01-02T08:29:02.159Z,10.97
2023-01-02T08:31:28.520Z,10.97
2023-01-02T08:33:54.913Z,10.99
2023-01-02T08:36:21.268Z,10.95
2023-01-02T08:38:47.670Z,10.99
2023-01-02T08:41:15.393Z,11.16
2023-01-02T08:43:41.764Z,11.10
2023-01-02T08:46:08.133Z,11.07
2023-01-02T08:48:34.553Z,11.15
2023-01-02T08:51:00.860Z,11.21
2023-01-02T08:53:27.207Z,11.18
2023-01-02T08:55:53.532Z,11.09
2023-01-02T08:58:19.855Z,11.15
2023-01-02T09:00:46.197Z,11.03
2023-01-02T09:03:12.704Z,11.08
2023-01-02T09:05:39.115Z,11.04
2023-01-02T09:08:05.420Z,11.11
2023-01-02T09:10:31.742Z,11.17
2023-01-02T09:12:59.275Z,11.17
2023-01-02T09:15:25.759Z,11.18
2023-01-02T09:17:52.262Z,11.07
2023-01-02T09:20:18.709Z,11.19
2023-01-02T09:22:45.017Z,11.12
2023-01-02T09:25:11.332Z,11.16
2023-01-02T09:27:37.672Z,11.11
2023-01-02T09:30:04.024Z,11.24
2023-01-02T09:32:30.364Z,11.27
2023-01-02T09:34:56.677Z,11.33
2023-01-02T09:37:23.015Z,11.40
2023-01-02T09:39:49.340Z,11.45
2023-01-02T09:42:15.683Z,11.39
2023-01-02T09:44:42.086Z,11.22
2023-01-02T09:47:08.389Z,11.42
2023-01-02T09:49:34.709Z,11.34
2023-01-02T09:52:01.046Z,11.40
2023-01-02T09:54:27.364Z,11.52
2023-01-02T09:56:53.732Z,11.49
2023-01-02T09:59:20.039Z,11.58
2023-01-02T10:01:46.387Z,11.52
2023-01-02T10:04:12.750Z,11.54
2023-01-02T10:06:39.258Z,11.51
2023-01-02T10:09:05.573Z,11.50
2023-01-02T10:11:31.915Z,11.46
2023-01-02T10:16:44.560Z,11.46
2023-01-02T10:19:10.898Z,11.45
2023-01-02T10:21:37.291Z,11.62
2023-01-02T10:24:03.678Z,11.42
2023-01-02T10:26:30.838Z,11.59
2023-01-02T10:28:57.740Z,11.61
2023-01-02T10:31:24.108Z,11.58
2023-01-02T10:33:50.429Z,11.64
2023-01-02T10:36:16.769Z,11.63
2023-01-02T10:38:43.099Z,11.62
2023-01-02T10:41:09.430Z,11.63
2023-01-02T10:43:37.172Z,11.61
2023-01-02T10:46:03.601Z,11.67
2023-01-02T10:48:29.919Z,11.59
2023-01-02T10:50:56.245Z,11.62
2023-01-02T10:53:22.697Z,11.58
2023-01-02T10:55:49.036Z,11.64
2023-01-02T10:58:15.348Z,11.53
2023-01-02T11:00:41.717Z,11.61
2023-01-02T11:03:08.159Z,11.68
2023-01-02T11:05:34.487Z,11.64
2023-01-02T11:08:00.822Z,11.63
2023-01-02T11:10:27.133Z,11.58
2023-01-02T11:12:53.586Z,11.62
2023-01-02T11:15:19.964Z,11.56
2023-01-02T11:17:46.279Z,11.47
2023-01-02T11:20:12.615Z,11.49
2023-01-02T11:22:38.929Z,11.52
2023-01-02T11:25:05.654Z,11.46
2023-01-02T11:27:31.958Z,11.59
2023-01-02T11:29:58.264Z,11.69
2023-01-02T11:32:24.579Z,11.54
2023-01-02T11:34:51.120Z,11.63
2023-01-02T11:37:17.509Z,11.71
2023-01-02T11:39:43.903Z,11.65
2023-01-02T11:42:29.207Z,11.64
2023-01-02T11:44:55.504Z,11.50
2023-01-02T11:47:21.942Z,11.51
2023-01-02T11:49:48.934Z,11.53
2023-01-02T11:52:15.268Z,11.46
2023-01-02T11:54:41.759Z,11.46
2023-01-02T11:57:08.092Z,11.58
2023-01-02T11:59:34.418Z,11.44
2023-01-02T12:02:00.957Z,11.48
2023-01-02T12:04:27.514Z,11.67
2023-01-02T12:06:53.857Z,11.73
2023-01-02T12:09:20.211Z,11.87
2023-01-02T12:11:46.557Z,11.95
2023-01-02T12:14:12.909Z,11.89
2023-01-02T12:16:39.291Z,11.96
2023-01-02T12:19:05.685Z,12.09
2023-01-02T12:21:31.992Z,11.97
2023-01-02T12:23:58.498Z,12.02
2023-01-02T12:26:26.119Z,12.14
2023-01-02T12:28:52.434Z,12.10
2023-01-02T12:31:18.862Z,12.37
2023-01-02T12:33:45.256Z,12.30
2023-01-02T12:36:11.635Z,12.26
2023-01-02T12:38:37.989Z,12.36
2023-01-02T12:41:04.327Z,12.37
2023-01-02T12:43:30.670Z,12.48
2023-01-02T12:45:57.032Z,12.48
2023-01-02T12:48:23.381Z,12.52
2023-01-02T12:50:49.693Z,12.44
2023-01-02T12:53:16.031Z,12.42
2023-01-02T12:55:42.367Z,12.35
2023-01-02T12:58:08.679Z,12.45
2023-01-02T13:00:34.985Z,12.43
2023-01-02T13:03:01.636Z,12.39
2023-01-02T13:05:27.980Z,12.49
2023-01-02T13:07:54.347Z,12.33
2023-01-02T13:10:20.673Z,12.24
2023-01-02T13:12:47.001Z,12.25
2023-01-02T13:15:13.355Z,12.26
2023-01-02T13:17:39.739Z,12.37
2023-01-02T13:20:06.055Z,12.42
2023-01-02T13:22:32.404Z,12.43
2023-01-02T13:24:58.719Z,12.37
2023-01-02T13:27:25.052Z,12.36
2023-01-02T13:29:51.372Z,12.38
2023-01-02T13:32:17.721Z,12.39
2023-01-02T13:34:44.079Z,12.35
2023-01-02T13:37:10.398Z,12.23
2023-01-02T13:39:36.721Z,12.19
2023-01-02T13:42:22.081Z,12.20
2023-01-02T13:44:48.399Z,12.19
2023-01-02T13:47:20.744Z,12.23
2023-01-02T13:49:55.510Z,12.14
2023-01-02T13:52:21.846Z,12.15
2023-01-02T13:54:48.165Z,12.28
2023-01-02T13:57:14.459Z,12.27
2023-01-02T13:59:41.703Z,12.27
2023-01-02T14:02:09.874Z,12.12
2023-01-02T14:04:36.345Z,12.16
2023-01-02T14:07:02.684Z,12.25
2023-01-02T14:09:28.985Z,12.26
2023-01-02T14:11:57.515Z,12.26
2023-01-02T14:14:24.124Z,12.25
2023-01-02T14:16:50.512Z,12.25
2023-01-02T14:19:16.975Z,12.24
2023-01-02T14:21:43.297Z,12.15
2023-01-02T14:24:16.933Z,12.15
2023-01-02T14:26:44.926Z,12.22
2023-01-02T14:29:11.256Z,12.13
2023-01-02T14:31:37.683Z,12.05
2023-01-02T14:34:04.109Z,12.05
2023-01-02T14:36:30.432Z,12.05
2023-01-02T14:38:56.766Z,11.94
2023-01-02T14:41:42.004Z,11.98
2023-01-02T14:44:08.346Z,11.99
2023-01-02T14:46:34.748Z,11.99
2023-01-02T14:49:01.111Z,11.96
2023-01-02T14:51:27.427Z,11.93
2023-01-02T14:53:53.753Z,11.91
2023-01-02T14:56:20.090Z,11.88
2023-01-02T14:58:46.764Z,11.80
2023-01-02T15:01:13.276Z,11.67
2023-01-02T15:03:39.845Z,11.72
2023-01-02T15:06:06.275Z,11.70
2023-01-02T15:08:32.601Z,11.70
2023-01-02T15:10:59.008Z,11.69
2023-01-02T15:13:25.329Z,11.68
2023-01-02T15:15:53.649Z,11.75
2023-01-02T15:18:20.430Z,11.76
2023-01-02T15:20:46.761Z,11.66
2023-01-02T15:23:13.074Z,11.71
2023-01-02T15:25:39.511Z,11.69
2023-01-02T15:28:05.885Z,11.70
2023-01-02T15:30:34.597Z,11.74
2023-01-02T15:33:00.916Z,11.65
2023-01-02T15:35:27.256Z,11.50
2023-01-02T15:37:53.569Z,11.51
2023-01-02T15:40:19.915Z,11.57
2023-01-02T15:43:05.227Z,11.61
2023-01-02T15:45:31.577Z,11.62
2023-01-02T15:47:57.938Z,11.52
2023-01-02T15:50:24.304Z,11.57
2023-01-02T15:52:50.645Z,11.59
2023-01-02T15:55:17.008Z,11.50
2023-01-02T15:57:43.341Z,11.55
2023-01-02T16:00:09.650Z,11.58
2023-01-02T16:02:36.127Z,11.54
2023-01-02T16:05:02.512Z,11.49
2023-01-02T16:07:28.859Z,11.40
2023-01-02T16:09:55.244Z,11.51
2023-01-02T16:12:21.613Z,11.56
2023-01-02T16:14:49.451Z,11.52
2023-01-02T16:17:15.784Z,11.52
2023-01-02T16:19:42.118Z,11.43
2023-01-02T16:22:08.528Z,11.43
2023-01-02T16:24:35.407Z,11.44
2023-01-02T16:27:02.077Z,11.41
2023-01-02T16:29:28.419Z,11.11
2023-01-02T16:31:54.825Z,11.22
2023-01-02T16:34:21.187Z,11.21
2023-01-02T16:36:47.505Z,11.31
2023-01-02T16:39:13.855Z,11.23
2023-01-02T16:41:44.981Z,11.29
2023-01-02T16:44:12.634Z,11.39
2023-01-02T16:46:38.975Z,11.45
2023-01-02T16:49:05.685Z,11.47
2023-01-02T16:51:32.048Z,11.44
2023-01-02T16:53:58.373Z,11.48
2023-01-02T16:56:24.722Z,11.29
2023-01-02T16:58:51.048Z,11.34
2023-01-02T17:01:20.785Z,11.26
2023-01-02T17:03:47.314Z,11.19
2023-01-02T17:06:13.708Z,11.21
2023-01-02T17:08:40.114Z,11.25
2023-01-02T17:11:06.419Z,11.33
2023-01-02T17:13:32.719Z,11.44
2023-01-02T17:15:59.083Z,11.58
2023-01-02T17:18:25.621Z,11.75
2023-01-02T17:20:51.943Z,11.92
2023-01-02T17:23:19.600Z,12.11
2023-01-02T17:25:46.384Z,12.36
2023-01-02T17:28:12.716Z,12.60
2023-01-02T17:30:39.096Z,12.79
2023-01-02T17:33:05.404Z,13.04
2023-01-02T17:35:31.738Z,13.26
2023-01-02T17:37:58.099Z,13.19
2023-01-02T17:40:24.429Z,13.17
2023-01-02T17:42:50.764Z,12.80
2023-01-02T17:45:17.089Z,12.52
2023-01-02T17:48:05.640Z,12.45
2023-01-02T17:50:29.784Z,12.33
2023-01-02T17:52:56.168Z,12.28
2023-01-02T17:55:22.488Z,12.18
2023-01-02T17:57:48.883Z,11.90
2023-01-02T18:00:15.230Z,11.92
2023-01-02T18:02:41.665Z,11.56
2023-01-02T18:05:08.089Z,11.57
2023-01-02T18:07:34.406Z,11.65
2023-01-02T18:10:07.920Z,11.46
2023-01-02T18:12:37.871Z,11.65
2023-01-02T18:15:04.376Z,11.77
2023-01-02T18:17:30.685Z,11.90
2023-01-02T18:19:57.009Z,12.01
2023-01-02T18:22:26.425Z,12.09
2023-01-02T18:24:52.835Z,12.25
2023-01-02T18:27:19.187Z,12.34
2023-01-02T18:29:45.544Z,12.52
2023-01-02T18:32:11.898Z,12.69
2023-01-02T18:34:59.274Z,12.73
2023-01-02T18:37:28.189Z,12.82
2023-01-02T18:39:55.101Z,12.81
2023-01-02T18:42:21.457Z,12.95
2023-01-02T18:44:48.047Z,13.28
2023-01-02T18:47:14.378Z,13.37
2023-01-02T18:49:40.815Z,13.61
2023-01-02T18:52:07.201Z,14.05
2023-01-02T18:54:33.550Z,13.94
2023-01-02T18:56:59.907Z,13.92
2023-01-02T18:59:26.221Z,14.07
2023-01-02T19:01:52.904Z,14.11
2023-01-02T19:04:27.394Z,13.97
2023-01-02T19:06:54.797Z,14.17
2023-01-02T19:09:21.225Z,14.00
2023-01-02T19:12:06.325Z,13.83
2023-01-02T19:14:32.654Z,13.84
2023-01-02T19:16:59.018Z,14.04
2023-01-02T19:19:26.023Z,13.90
2023-01-02T19:21:52.461Z,13.86
2023-01-02T19:24:19.039Z,13.82
2023-01-02T19:26:45.469Z,13.71
2023-01-02T19:29:11.808Z,13.70
2023-01-02T19:31:38.142Z,13.77
2023-01-02T19:34:04.448Z,13.80
2023-01-02T19:36:30.880Z,13.81
2023-01-02T19:38:57.196Z,13.80
2023-01-02T19:41:43.481Z,13.88
2023-01-02T19:44:09.820Z,13.86
2023-01-02T19:46:36.203Z,13.96
2023-01-02T19:49:02.529Z,13.98
2023-01-02T19:51:32.242Z,13.89
2023-01-02T19:54:03.736Z,13.86
2023-01-02T19:56:30.721Z,13.87
2023-01-02T19:58:57.050Z,13.83
2023-01-02T20:01:23.556Z,13.81
2023-01-02T20:03:50.045Z,13.82
2023-01-02T20:06:16.425Z,13.88
2023-01-02T20:08:43.950Z,13.88
2023-01-02T20:11:30.264Z,13.94
2023-01-02T20:13:56.588Z,13.91
2023-01-02T20:16:22.940Z,14.05
2023-01-02T20:18:49.265Z,13.75
2023-01-02T20:21:15.575Z,13.49
2023-01-02T20:23:41.883Z,13.28
2023-01-02T20:26:08.503Z,13.14
2023-01-02T20:28:34.915Z,12.86
2023-01-02T20:31:01.264Z,12.59
2023-01-02T20:33:27.618Z,12.39
2023-01-02T20:35:53.945Z,12.14
2023-01-02T20:38:20.261Z,11.96
2023-01-02T20:40:46.646Z,11.66
2023-01-02T20:43:12.978Z,11.56
2023-01-02T20:45:39.335Z,11.16
2023-01-02T20:48:09.147Z,10.81
2023-01-02T20:50:35.454Z,10.67
2023-01-02T20:53:02.328Z,10.61
2023-01-02T20:55:28.701Z,10.46
2023-01-02T20:57:55.118Z,10.30
2023-01-02T21:00:21.513Z,10.23
2023-01-02T21:02:47.967Z,10.14
2023-01-02T21:05:14.515Z,10.10
2023-01-02T21:07:40.836Z,9.84
2023-01-02T21:10:07.142Z,9.96
2023-01-02T21:12:52.369Z,9.98
2023-01-02T21:15:37.679Z,9.89
2023-01-02T21:18:04.050Z,9.94
2023-01-02T21:20:30.354Z,9.92
2023-01-02T21:22:56.659Z,9.76
2023-01-02T21:25:22.958Z,9.80
2023-01-02T21:27:49.284Z,9.82
2023-01-02T21:30:15.622Z,9.97
2023-01-02T21:32:41.928Z,9.81
2023-01-02T21:35:08.237Z,9.88
2023-01-02T21:37:34.554Z,10.02
2023-01-02T21:40:01.303Z,9.95
2023-01-02T21:42:27.620Z,10.01
2023-01-02T21:44:53.940Z,10.15
2023-01-02T21:47:20.308Z,10.19
2023-01-02T21:49:46.636Z,10.26
2023-01-02T21:52:12.952Z,10.18
2023-01-02T21:54:39.287Z,9.95
2023-01-02T21:57:05.621Z,9.95
2023-01-02T21:59:31.934Z,10.11
2023-01-02T22:02:00.123Z,9.86
2023-01-02T22:04:26.607Z,9.90
2023-01-02T22:09:39.226Z,10.18
2023-01-02T22:12:07.296Z,10.29
2023-01-02T22:14:33.821Z,10.17
2023-01-02T22:17:00.178Z,10.28
2023-01-02T22:19:26.494Z,10.34
2023-01-02T22:21:52.798Z,10.34
2023-01-02T22:24:19.184Z,10.30
2023-01-02T22:26:45.520Z,10.17
2023-01-02T22:29:11.845Z,10.23
2023-01-02T22:31:38.271Z,10.07
2023-01-02T22:34:04.673Z,10.24
2023-01-02T22:36:31.635Z,10.06
2023-01-02T22:39:27.041Z,10.19
2023-01-02T22:41:47.415Z,10.28
2023-01-02T22:44:13.727Z,10.32
2023-01-02T22:46:40.146Z,10.38
2023-01-02T22:49:06.510Z,10.44
2023-01-02T22:52:05.497Z,10.30
2023-01-02T22:54:19.125Z,10.31
2023-01-02T22:56:45.468Z,10.37
2023-01-02T22:59:11.777Z,10.21
2023-01-02T23:01:38.313Z,10.20
2023-01-02T23:04:04.714Z,9.95
2023-01-02T23:06:31.114Z,9.71
2023-01-02T23:08:57.437Z,9.74
2023-01-02T23:11:23.789Z,9.91
2023-01-02T23:13:56.018Z,9.94
2023-01-02T23:16:41.924Z,9.87
2023-01-02T23:19:14.485Z,9.95
2023-01-02T23:21:42.208Z,10.09
2023-01-02T23:24:08.601Z,10.07
2023-01-02T23:26:34.950Z,9.98
2023-01-02T23:29:09.045Z,10.11
2023-01-02T23:31:35.671Z,10.09
2023-01-02T23:34:02.030Z,10.11
2023-01-02T23:36:28.446Z,10.05
2023-01-02T23:38:54.741Z,10.13
2023-01-02T23:41:21.111Z,10.04
2023-01-02T23:43:47.449Z,10.14
2023-01-02T23:46:13.857Z,9.95
2023-01-02T23:48:40.321Z,10.03
2023-01-02T23:51:06.761Z,10.10
2023-01-02T23:53:33.119Z,10.15
2023-01-02T23:55:59.415Z,10.11
2023-01-02T23:58:25.715Z,10.01
